Time;durP1;ratioP1;P1;durP2;ratioP2;P2;SDS_P1;SDS_P2;PMS_P1;PMS_P2;Temp;Humidity;BMP_temperature;BMP_pressure;BME280_temperature;BME280_humidity;BME280_pressure;Samples;Min_cycle;Max_cycle;Signal;HPM_P1;HPM_P2
2023/06/11 00:01:31;;;;;;;7.00;5.55;;;19.80;99.90;;;;;;5049986;28;20049;-74
2023/06/11 00:03:57;;;;;;;7.05;5.13;;;19.70;99.90;;;;;;5069372;28;20033;-75
2023/06/11 00:06:23;;;;;;;10.88;6.00;;;19.60;99.90;;;;;;5047486;28;20044;-73
2023/06/11 00:08:53;;;;;;;13.70;6.93;;;19.70;99.90;;;;;;5054977;28;20521;-73
2023/06/11 00:11:21;;;;;;;7.78;6.03;;;19.60;99.90;;;;;;5070078;28;20648;-72
2023/06/11 00:13:47;;;;;;;12.15;7.22;;;19.50;99.90;;;;;;5037020;28;20040;-73
2023/06/11 00:16:14;;;;;;;10.25;6.72;;;19.40;99.90;;;;;;5059100;28;20055;-73
2023/06/11 00:18:41;;;;;;;23.25;15.55;;;19.50;99.90;;;;;;5033203;28;20041;-74
2023/06/11 00:21:11;;;;;;;14.50;9.65;;;19.30;99.90;;;;;;5050227;28;20037;-74
2023/06/11 00:23:37;;;;;;;11.05;7.78;;;19.30;99.90;;;;;;5033274;28;20041;-75
2023/06/11 00:26:07;;;;;;;9.30;7.07;;;19.30;99.90;;;;;;5068192;28;20033;-72
2023/06/11 00:28:33;;;;;;;8.13;6.07;;;19.30;99.90;;;;;;5052929;28;20044;-72
2023/06/11 00:31:06;;;;;;;23.33;18.42;;;19.20;99.90;;;;;;5069498;28;20032;-72
2023/06/11 00:33:32;;;;;;;13.93;11.63;;;19.20;99.90;;;;;;5053303;28;20414;-72
2023/06/11 00:35:57;;;;;;;14.23;10.20;;;19.10;99.90;;;;;;5049946;28;20032;-73
2023/06/11 00:38:23;;;;;;;18.13;10.52;;;19.10;99.90;;;;;;5065701;28;20381;-75
2023/06/11 00:40:49;;;;;;;13.77;9.00;;;19.00;99.90;;;;;;5032807;28;20040;-71
2023/06/11 00:43:21;;;;;;;13.18;8.80;;;19.00;99.90;;;;;;5027403;28;20044;-74
2023/06/11 00:45:50;;;;;;;11.45;7.18;;;19.00;99.90;;;;;;5053188;28;20139;-72
2023/06/11 00:48:19;;;;;;;11.82;7.60;;;18.90;99.90;;;;;;5035972;28;20047;-72
2023/06/11 00:50:49;;;;;;;8.43;7.07;;;19.00;99.90;;;;;;5032632;28;20040;-73
2023/06/11 00:53:21;;;;;;;8.45;6.90;;;19.00;99.90;;;;;;5044961;28;20036;-71
2023/06/11 00:55:47;;;;;;;9.65;6.47;;;18.90;99.90;;;;;;5068471;28;20075;-72
2023/06/11 00:58:15;;;;;;;7.65;6.85;;;18.80;99.90;;;;;;5065473;28;20076;-74
2023/06/11 01:00:50;;;;;;;8.85;7.57;;;18.70;99.90;;;;;;5066015;28;20068;-71
2023/06/11 01:03:21;;;;;;;10.80;7.90;;;18.70;99.90;;;;;;5046335;28;20346;-73
2023/06/11 01:05:52;;;;;;;9.02;6.93;;;18.60;99.90;;;;;;5071186;28;20115;-73
2023/06/11 01:08:19;;;;;;;10.18;7.25;;;18.60;99.90;;;;;;5045968;28;20411;-73
2023/06/11 01:10:45;;;;;;;10.50;7.35;;;18.60;99.90;;;;;;5069327;28;20350;-73
2023/06/11 01:13:11;;;;;;;8.00;6.90;;;18.60;99.90;;;;;;5065647;28;20076;-74
2023/06/11 01:15:37;;;;;;;8.70;7.65;;;18.50;99.90;;;;;;5051851;28;20080;-71
2023/06/11 01:18:22;;;;;;;11.25;8.65;;;18.50;99.90;;;;;;5063938;28;20747;-74
2023/06/11 01:21:21;;;;;;;9.80;8.05;;;18.50;99.90;;;;;;5061298;28;20383;-73
2023/06/11 01:24:04;;;;;;;12.10;7.47;;;18.60;99.90;;;;;;5052242;28;20471;-73
2023/06/11 01:27:04;;;;;;;9.40;7.63;;;18.60;99.90;;;;;;5068536;28;20044;-75
2023/06/11 01:29:30;;;;;;;12.05;8.27;;;18.50;99.90;;;;;;5049594;28;20396;-75
2023/06/11 01:31:59;;;;;;;9.57;7.80;;;18.60;99.90;;;;;;5068067;28;20038;-73
2023/06/11 01:34:25;;;;;;;12.70;9.07;;;18.60;99.90;;;;;;5068393;28;20040;-74
2023/06/11 01:36:51;;;;;;;13.73;10.02;;;18.60;99.90;;;;;;5051452;28;20048;-75
2023/06/11 01:39:16;;;;;;;10.55;8.23;;;18.60;99.90;;;;;;5048633;28;20044;-72
2023/06/11 01:41:42;;;;;;;9.80;8.52;;;18.60;99.90;;;;;;5068078;28;20461;-74
2023/06/11 01:44:08;;;;;;;9.73;8.55;;;18.60;99.90;;;;;;5068423;28;20045;-74
2023/06/11 01:46:33;;;;;;;10.07;8.20;;;18.50;99.90;;;;;;5068396;28;20052;-75
2023/06/11 01:48:59;;;;;;;10.32;8.18;;;18.50;99.90;;;;;;5014366;28;20051;-73
2023/06/11 01:51:25;;;;;;;9.13;8.23;;;18.40;99.90;;;;;;5036273;28;20098;-74
2023/06/11 01:53:51;;;;;;;8.77;7.90;;;18.50;99.90;;;;;;5032943;28;20744;-74
2023/06/11 01:56:17;;;;;;;11.07;8.65;;;18.40;99.90;;;;;;5054835;28;20085;-74
2023/06/11 01:58:45;;;;;;;9.15;8.15;;;18.40;99.90;;;;;;5048483;28;20419;-75
2023/06/11 02:01:11;;;;;;;8.45;7.53;;;18.40;99.90;;;;;;5045992;28;20047;-74
2023/06/11 02:03:36;;;;;;;9.50;8.23;;;18.40;99.90;;;;;;5047869;28;20416;-72
2023/06/11 02:06:02;;;;;;;9.98;7.95;;;18.40;99.90;;;;;;5048105;28;20037;-74
2023/06/11 02:08:27;;;;;;;10.80;8.73;;;18.40;99.90;;;;;;5042041;28;20040;-74
2023/06/11 02:10:53;;;;;;;9.15;8.10;;;18.30;99.90;;;;;;5098591;28;20036;-75
2023/06/11 02:13:19;;;;;;;8.40;7.70;;;18.30;99.90;;;;;;5066807;28;20064;-75
2023/06/11 02:15:45;;;;;;;9.55;8.18;;;18.20;99.90;;;;;;5051227;28;20041;-75
2023/06/11 02:18:10;;;;;;;10.63;8.23;;;18.20;99.90;;;;;;5053123;28;20067;-74
2023/06/11 02:20:36;;;;;;;9.57;8.40;;;18.20;99.90;;;;;;5041744;28;20041;-72
2023/06/11 02:23:03;;;;;;;9.52;8.63;;;18.10;99.90;;;;;;5046367;28;20076;-76
2023/06/11 02:25:29;;;;;;;9.32;8.07;;;18.10;99.90;;;;;;5061427;28;20079;-74
2023/06/11 02:27:54;;;;;;;10.25;8.20;;;18.00;99.90;;;;;;5049629;28;20071;-76
2023/06/11 02:30:20;;;;;;;9.30;8.40;;;18.10;99.90;;;;;;5049454;28;20036;-76
2023/06/11 02:32:46;;;;;;;10.70;8.60;;;18.00;99.90;;;;;;5068730;28;20124;-74
2023/06/11 02:35:11;;;;;;;10.50;9.32;;;18.00;99.90;;;;;;5050908;28;20047;-73
2023/06/11 02:37:37;;;;;;;9.43;8.43;;;18.00;99.90;;;;;;5042902;28;20073;-73
2023/06/11 02:40:03;;;;;;;9.32;8.32;;;18.00;99.90;;;;;;5025435;28;20041;-74
2023/06/11 02:42:29;;;;;;;9.52;8.63;;;18.00;99.90;;;;;;5069121;28;20184;-74
2023/06/11 02:44:55;;;;;;;9.52;8.63;;;17.90;99.90;;;;;;5050670;28;20456;-73
2023/06/11 02:47:24;;;;;;;11.20;9.90;;;18.00;99.90;;;;;;5050891;28;20110;-73
2023/06/11 02:49:49;;;;;;;11.93;8.68;;;17.90;99.90;;;;;;5051945;28;20039;-76
2023/06/11 02:52:15;;;;;;;9.85;8.90;;;18.00;99.90;;;;;;5053876;28;20033;-73
2023/06/11 02:54:41;;;;;;;10.15;9.15;;;17.80;99.90;;;;;;5033996;28;20439;-73
2023/06/11 02:57:06;;;;;;;9.25;8.45;;;17.80;99.90;;;;;;5052840;28;20484;-75
2023/06/11 02:59:32;;;;;;;9.70;8.75;;;17.90;99.90;;;;;;5052571;28;20043;-74
2023/06/11 03:01:58;;;;;;;10.98;9.88;;;17.80;99.90;;;;;;5051572;28;20045;-75
2023/06/11 03:04:23;;;;;;;9.50;8.50;;;17.80;99.90;;;;;;5032899;28;20044;-72
2023/06/11 03:06:49;;;;;;;11.88;8.93;;;17.70;99.90;;;;;;5034641;28;20047;-74
2023/06/11 03:09:15;;;;;;;15.63;9.55;;;17.80;99.90;;;;;;5051939;28;20521;-74
2023/06/11 03:11:40;;;;;;;9.40;8.50;;;17.70;99.90;;;;;;5042849;28;20119;-75
2023/06/11 03:14:07;;;;;;;9.88;8.80;;;17.70;99.90;;;;;;5054152;28;20041;-76
2023/06/11 03:16:33;;;;;;;10.15;9.18;;;17.60;99.90;;;;;;5070487;28;20043;-74
2023/06/11 03:18:58;;;;;;;9.90;8.90;;;17.60;99.90;;;;;;5037242;28;20127;-75
2023/06/11 03:21:24;;;;;;;10.32;9.32;;;17.60;99.90;;;;;;5062893;28;20155;-74
2023/06/11 03:23:50;;;;;;;10.10;9.00;;;17.60;99.90;;;;;;5072353;28;20050;-73
2023/06/11 03:26:15;;;;;;;11.35;9.73;;;17.50;99.90;;;;;;5040374;28;20033;-74
2023/06/11 03:28:41;;;;;;;9.65;8.75;;;17.60;99.90;;;;;;5064594;28;20040;-75
2023/06/11 03:31:07;;;;;;;11.20;9.18;;;17.50;99.90;;;;;;5069943;28;20052;-76
2023/06/11 03:33:36;;;;;;;10.50;9.50;;;17.50;99.90;;;;;;5051196;28;20037;-74
2023/06/11 03:36:01;;;;;;;10.65;9.65;;;17.60;99.90;;;;;;5048541;28;20048;-75
2023/06/11 03:38:27;;;;;;;10.50;9.40;;;17.60;99.90;;;;;;5065758;28;20040;-77
2023/06/11 03:40:53;;;;;;;9.75;8.57;;;17.70;99.90;;;;;;5042362;28;20056;-76
2023/06/11 03:43:18;;;;;;;11.60;10.15;;;17.60;99.90;;;;;;5063547;28;20048;-74
2023/06/11 03:45:44;;;;;;;10.88;9.18;;;17.60;99.90;;;;;;5070652;28;20624;-75
2023/06/11 03:48:10;;;;;;;10.13;9.13;;;17.60;99.90;;;;;;5049755;28;20043;-74
2023/06/11 03:50:35;;;;;;;10.23;9.10;;;17.70;99.90;;;;;;5069896;28;20123;-74
2023/06/11 03:53:01;;;;;;;10.43;9.25;;;17.70;99.90;;;;;;5071876;28;20032;-75
2023/06/11 03:55:27;;;;;;;9.80;8.88;;;17.60;99.90;;;;;;5062642;28;20045;-76
2023/06/11 03:57:53;;;;;;;10.32;9.32;;;17.70;99.90;;;;;;5070445;28;20404;-74
2023/06/11 04:00:19;;;;;;;10.65;9.63;;;17.60;99.90;;;;;;5046862;28;20041;-76
2023/06/11 04:02:44;;;;;;;10.45;9.35;;;17.70;99.90;;;;;;5059948;28;20044;-73
2023/06/11 04:05:10;;;;;;;11.02;9.60;;;17.70;99.90;;;;;;5053074;28;20056;-76
2023/06/11 04:07:39;;;;;;;10.35;8.93;;;17.70;99.90;;;;;;5063736;28;20472;-75
2023/06/11 04:10:06;;;;;;;12.70;9.40;;;17.60;99.90;;;;;;5065141;28;20057;-74
2023/06/11 04:12:32;;;;;;;12.27;9.75;;;17.70;99.90;;;;;;5036734;28;20041;-75
2023/06/11 04:14:57;;;;;;;10.10;8.93;;;17.70;99.90;;;;;;5070571;28;20070;-76
2023/06/11 04:17:23;;;;;;;10.48;9.43;;;17.60;99.90;;;;;;5051388;28;20157;-74
2023/06/11 04:19:49;;;;;;;10.82;9.43;;;17.70;99.90;;;;;;5069269;28;20052;-75
2023/06/11 04:22:14;;;;;;;11.43;9.15;;;17.80;99.90;;;;;;5051411;28;20047;-76
2023/06/11 04:24:40;;;;;;;11.77;9.80;;;17.80;99.90;;;;;;5069666;28;20044;-74
2023/06/11 04:27:06;;;;;;;11.93;9.88;;;17.80;99.90;;;;;;5052469;28;20041;-75
2023/06/11 04:29:33;;;;;;;12.48;10.30;;;17.80;99.90;;;;;;5061666;28;20032;-75
2023/06/11 04:32:02;;;;;;;10.50;9.57;;;17.90;99.90;;;;;;5068397;28;20041;-75
2023/06/11 04:34:29;;;;;;;10.55;9.45;;;17.90;99.90;;;;;;5034632;28;20362;-74
2023/06/11 04:36:56;;;;;;;10.55;9.48;;;17.90;99.90;;;;;;5065883;28;20374;-76
2023/06/11 04:39:22;;;;;;;11.48;10.27;;;17.90;99.90;;;;;;5063297;28;20063;-77
2023/06/11 04:41:48;;;;;;;10.48;9.45;;;18.00;99.90;;;;;;5031619;28;20045;-75
2023/06/11 04:44:14;;;;;;;12.43;9.75;;;18.10;99.90;;;;;;5052434;28;20119;-74
2023/06/11 04:46:40;;;;;;;10.10;9.02;;;18.20;99.90;;;;;;5052666;28;20162;-73
2023/06/11 04:49:06;;;;;;;10.55;9.55;;;18.20;99.90;;;;;;5069339;28;20041;-74
2023/06/11 04:51:33;;;;;;;10.05;9.07;;;18.10;99.90;;;;;;5067636;28;20094;-74
2023/06/11 04:54:07;;;;;;;11.63;9.27;;;18.20;99.90;;;;;;5084426;28;20037;-73
2023/06/11 04:56:33;;;;;;;12.98;9.73;;;18.30;99.90;;;;;;5057349;28;20072;-74
2023/06/11 04:59:01;;;;;;;10.48;9.48;;;18.40;99.90;;;;;;5066258;28;20144;-75
2023/06/11 05:01:30;;;;;;;11.90;9.80;;;18.50;99.90;;;;;;5053881;28;20047;-75
2023/06/11 05:03:56;;;;;;;11.15;9.35;;;18.50;99.90;;;;;;5062495;28;20035;-75
2023/06/11 05:06:23;;;;;;;10.20;9.20;;;18.50;99.90;;;;;;5058393;28;20037;-76
2023/06/11 05:08:50;;;;;;;10.30;9.30;;;18.60;99.90;;;;;;5051472;28;20559;-74
2023/06/11 05:11:16;;;;;;;10.02;9.02;;;18.60;99.90;;;;;;5068301;28;20041;-75
2023/06/11 05:13:42;;;;;;;11.00;9.90;;;18.80;99.90;;;;;;5050543;28;20037;-76
2023/06/11 05:16:08;;;;;;;10.98;9.63;;;18.70;99.90;;;;;;5053155;28;20042;-75
2023/06/11 05:18:34;;;;;;;11.00;9.23;;;18.80;99.90;;;;;;5055379;28;20101;-74
2023/06/11 05:21:00;;;;;;;10.43;9.45;;;18.90;99.90;;;;;;5063855;28;20143;-76
2023/06/11 05:23:30;;;;;;;10.93;9.68;;;19.00;99.90;;;;;;5051749;28;20119;-76
2023/06/11 05:26:08;;;;;;;13.95;9.57;;;19.10;99.90;;;;;;5051459;28;20132;-75
2023/06/11 05:28:34;;;;;;;11.98;9.40;;;19.20;99.90;;;;;;5067587;28;20127;-75
2023/06/11 05:31:03;;;;;;;10.18;9.18;;;19.10;99.90;;;;;;5049060;28;20186;-76
2023/06/11 05:33:30;;;;;;;9.60;8.68;;;19.30;99.90;;;;;;5095027;28;20132;-74
2023/06/11 05:35:56;;;;;;;10.30;9.00;;;19.30;99.90;;;;;;5063288;28;20048;-73
2023/06/11 05:38:21;;;;;;;14.55;9.75;;;19.40;99.90;;;;;;5047117;28;20602;-76
2023/06/11 05:40:48;;;;;;;10.57;9.57;;;19.50;99.90;;;;;;5051305;28;20052;-76
2023/06/11 05:43:14;;;;;;;9.98;8.75;;;19.60;99.90;;;;;;5053237;28;20083;-75
2023/06/11 05:45:49;;;;;;;11.05;9.95;;;19.50;99.90;;;;;;5018751;28;20044;-75
2023/06/11 05:48:17;;;;;;;10.20;8.63;;;19.70;99.90;;;;;;5049996;28;20076;-76
2023/06/11 05:50:43;;;;;;;8.90;8.00;;;19.70;99.90;;;;;;5059849;28;20053;-76
2023/06/11 05:53:09;;;;;;;9.45;8.52;;;19.80;99.90;;;;;;5051575;28;20054;-76
2023/06/11 05:55:37;;;;;;;8.40;7.57;;;19.90;99.90;;;;;;5068295;28;20055;-77
2023/06/11 05:58:03;;;;;;;10.25;9.18;;;20.10;99.90;;;;;;5055275;28;20086;-74
2023/06/11 06:00:29;;;;;;;9.35;8.02;;;20.20;99.90;;;;;;5042457;28;20041;-75
2023/06/11 06:02:55;;;;;;;10.25;8.45;;;20.20;99.90;;;;;;5049730;28;20053;-75
2023/06/11 06:05:21;;;;;;;11.77;9.13;;;20.20;99.90;;;;;;5049024;28;20424;-75
2023/06/11 06:07:47;;;;;;;9.48;8.20;;;20.30;99.90;;;;;;5068765;28;20045;-76
2023/06/11 06:10:12;;;;;;;9.20;7.97;;;20.30;99.90;;;;;;5044624;28;20086;-75
2023/06/11 06:12:38;;;;;;;9.05;7.90;;;20.40;99.90;;;;;;5016689;28;20036;-73
2023/06/11 06:15:04;;;;;;;8.65;7.85;;;20.50;99.90;;;;;;5031935;28;20119;-73
2023/06/11 06:17:30;;;;;;;8.52;7.72;;;20.70;99.90;;;;;;5050714;28;20047;-77
2023/06/11 06:19:55;;;;;;;10.27;8.50;;;20.70;99.90;;;;;;5049993;28;20044;-76
2023/06/11 06:22:21;;;;;;;9.45;7.90;;;20.80;99.90;;;;;;5036148;28;20057;-73
2023/06/11 06:24:47;;;;;;;9.55;8.52;;;20.80;99.90;;;;;;5034296;28;20123;-74
2023/06/11 06:27:12;;;;;;;9.73;8.82;;;20.90;99.90;;;;;;5050068;28;20578;-75
2023/06/11 06:29:41;;;;;;;12.27;8.82;;;21.20;99.90;;;;;;5063469;28;20041;-74
2023/06/11 06:32:07;;;;;;;9.30;8.13;;;21.20;99.90;;;;;;5040018;28;20040;-73
2023/06/11 06:34:33;;;;;;;9.73;8.10;;;21.40;99.90;;;;;;5062191;28;20551;-74
2023/06/11 06:36:58;;;;;;;8.18;7.35;;;21.50;99.90;;;;;;5038291;28;20090;-74
2023/06/11 06:39:24;;;;;;;10.45;8.70;;;21.70;99.90;;;;;;5069483;28;20036;-73
2023/06/11 06:41:50;;;;;;;10.38;8.68;;;21.70;99.90;;;;;;5069849;28;20272;-73
2023/06/11 06:44:15;;;;;;;9.80;8.05;;;21.90;99.90;;;;;;5049634;28;20029;-74
2023/06/11 06:46:41;;;;;;;9.00;8.10;;;22.10;99.90;;;;;;5069619;28;20060;-73
2023/06/11 06:49:07;;;;;;;8.75;7.80;;;22.20;99.90;;;;;;5067728;28;20576;-75
2023/06/11 06:51:32;;;;;;;8.50;7.55;;;22.30;99.90;;;;;;5069958;28;20045;-73
2023/06/11 06:53:59;;;;;;;9.75;7.35;;;22.50;99.90;;;;;;5050154;28;20071;-74
2023/06/11 06:56:25;;;;;;;10.90;7.88;;;22.80;99.90;;;;;;5033283;28;20433;-73
2023/06/11 06:58:50;;;;;;;9.07;8.20;;;22.80;99.90;;;;;;5072973;28;20044;-73
2023/06/11 07:01:16;;;;;;;9.95;8.07;;;23.00;99.90;;;;;;5070624;28;20082;-73
2023/06/11 07:03:42;;;;;;;11.05;8.20;;;23.20;99.90;;;;;;5048974;28;20473;-74
2023/06/11 07:06:08;;;;;;;8.80;7.90;;;23.20;99.90;;;;;;5049822;28;20052;-73
2023/06/11 07:08:34;;;;;;;9.02;8.23;;;23.20;99.90;;;;;;5055528;28;20040;-74
2023/06/11 07:11:00;;;;;;;9.20;8.20;;;23.30;99.90;;;;;;5036453;28;20059;-75
2023/06/11 07:13:26;;;;;;;9.10;8.30;;;23.40;99.90;;;;;;5070997;28;20421;-72
2023/06/11 07:15:51;;;;;;;9.35;8.32;;;23.60;99.90;;;;;;5064584;28;20083;-75
2023/06/11 07:18:17;;;;;;;9.15;7.95;;;23.80;99.90;;;;;;5055087;28;20097;-74
2023/06/11 07:20:43;;;;;;;8.73;7.82;;;23.60;99.90;;;;;;5033050;28;20131;-73
2023/06/11 07:23:09;;;;;;;8.82;7.93;;;23.70;99.90;;;;;;5072871;28;20041;-73
2023/06/11 07:25:37;;;;;;;9.48;7.50;;;23.50;99.90;;;;;;5053604;28;20067;-72
2023/06/11 07:28:04;;;;;;;7.80;7.05;;;23.70;99.90;;;;;;5042882;28;20041;-73
2023/06/11 07:30:31;;;;;;;8.38;7.57;;;23.90;99.90;;;;;;5051106;28;20079;-73
2023/06/11 07:32:57;;;;;;;9.20;7.60;;;24.10;99.90;;;;;;5053740;28;20040;-75
2023/06/11 07:35:24;;;;;;;8.95;8.05;;;24.30;99.90;;;;;;5065381;28;20105;-74
2023/06/11 07:37:50;;;;;;;8.70;7.85;;;24.20;99.90;;;;;;5052771;28;20093;-75
2023/06/11 07:40:16;;;;;;;10.20;6.85;;;24.40;99.90;;;;;;5064552;28;20051;-74
2023/06/11 07:42:43;;;;;;;7.45;6.68;;;24.30;99.90;;;;;;5062250;28;20481;-75
2023/06/11 07:45:09;;;;;;;11.63;8.30;;;24.20;99.90;;;;;;5042345;28;20140;-74
2023/06/11 07:47:35;;;;;;;8.95;8.05;;;24.20;99.90;;;;;;5022469;28;20580;-74
2023/06/11 07:50:02;;;;;;;7.75;7.05;;;24.40;99.90;;;;;;5068397;28;20067;-74
2023/06/11 07:52:27;;;;;;;9.85;8.05;;;24.40;99.90;;;;;;5057749;28;20119;-74
2023/06/11 07:54:53;;;;;;;8.60;7.80;;;24.40;99.90;;;;;;5053569;28;20178;-75
2023/06/11 07:57:19;;;;;;;10.52;7.95;;;24.50;99.90;;;;;;5062459;28;20647;-74
2023/06/11 07:59:45;;;;;;;9.40;8.35;;;24.60;99.90;;;;;;5041085;28;20060;-74
2023/06/11 08:02:11;;;;;;;8.70;7.80;;;24.50;99.90;;;;;;5050061;28;20725;-75
2023/06/11 08:04:38;;;;;;;9.88;8.68;;;24.60;99.90;;;;;;5070425;28;20060;-75
2023/06/11 08:07:04;;;;;;;8.60;7.80;;;24.70;99.90;;;;;;5049652;28;20041;-75
2023/06/11 08:09:32;;;;;;;8.02;7.22;;;24.70;99.90;;;;;;5066264;28;21262;-73
2023/06/11 08:11:58;;;;;;;8.77;7.88;;;24.90;99.90;;;;;;5087154;28;20025;-74
2023/06/11 08:14:24;;;;;;;10.98;7.95;;;25.00;99.90;;;;;;5067582;28;20036;-75
2023/06/11 08:16:50;;;;;;;9.82;8.10;;;24.90;99.90;;;;;;5069679;28;20044;-74
2023/06/11 08:19:15;;;;;;;9.00;7.90;;;25.00;99.90;;;;;;5066744;28;20940;-74
2023/06/11 08:21:41;;;;;;;9.77;7.95;;;25.10;99.90;;;;;;5067728;28;20070;-73
2023/06/11 08:24:08;;;;;;;9.43;8.32;;;25.20;99.90;;;;;;5066810;28;20046;-73
2023/06/11 08:26:34;;;;;;;7.60;6.85;;;25.50;99.90;;;;;;5033383;28;20041;-74
2023/06/11 08:29:02;;;;;;;7.85;6.93;;;25.50;99.90;;;;;;5035642;28;20051;-73
2023/06/11 08:31:28;;;;;;;7.00;6.30;;;25.50;99.90;;;;;;5032568;28;20041;-74
2023/06/11 08:33:53;;;;;;;7.97;7.28;;;25.40;99.90;;;;;;5051679;28;20047;-75
2023/06/11 08:36:20;;;;;;;9.90;8.25;;;25.40;99.90;;;;;;5036837;28;20041;-75
2023/06/11 08:38:47;;;;;;;8.48;7.68;;;25.60;99.90;;;;;;5072589;28;20032;-74
2023/06/11 08:41:14;;;;;;;10.48;7.20;;;25.60;99.90;;;;;;5069031;28;20036;-73
2023/06/11 08:43:40;;;;;;;8.32;7.53;;;25.80;99.90;;;;;;5036143;28;20055;-74
2023/06/11 08:46:13;;;;;;;8.60;7.78;;;26.00;99.90;;;;;;5054252;28;20065;-74
2023/06/11 08:48:44;;;;;;;7.20;6.47;;;26.10;99.90;;;;;;5068929;28;20052;-74
2023/06/11 08:51:11;;;;;;;9.77;7.70;;;26.20;99.90;;;;;;5069473;28;20094;-73
2023/06/11 08:53:38;;;;;;;8.15;7.40;;;26.40;99.90;;;;;;5049722;28;20127;-74
2023/06/11 08:56:06;;;;;;;8.73;7.85;;;26.60;99.90;;;;;;5061296;28;20110;-75
2023/06/11 08:58:33;;;;;;;8.02;7.22;;;26.80;99.90;;;;;;5070955;28;20071;-73
2023/06/11 09:01:11;;;;;;;8.55;7.63;;;27.10;99.90;;;;;;5051890;28;20646;-74
2023/06/11 09:03:37;;;;;;;9.68;7.72;;;26.90;89.50;;;;;;5062008;28;20044;-74
2023/06/11 09:06:04;;;;;;;8.48;7.60;;;27.00;83.80;;;;;;5049119;28;20052;-75
2023/06/11 09:08:30;;;;;;;8.35;7.40;;;27.30;74.10;;;;;;5067027;28;20884;-75
2023/06/11 09:10:56;;;;;;;8.27;7.30;;;27.30;48.00;;;;;;5058665;28;20044;-74
2023/06/11 09:13:27;;;;;;;7.88;7.03;;;27.70;73.70;;;;;;5041538;28;20040;-75
2023/06/11 09:15:55;;;;;;;8.35;7.47;;;27.80;6.60;;;;;;5047872;28;20040;-71
2023/06/11 09:18:25;;;;;;;7.60;6.80;;;28.00;1.00;;;;;;5064758;28;20052;-71
2023/06/11 09:20:55;;;;;;;7.55;6.85;;;28.20;1.00;;;;;;5053353;28;20048;-72
2023/06/11 09:23:24;;;;;;;8.13;6.93;;;28.40;1.00;;;;;;5058487;28;20044;-71
2023/06/11 09:25:50;;;;;;;7.28;6.57;;;28.90;1.00;;;;;;5054314;28;20514;-72
2023/06/11 09:28:16;;;;;;;7.70;7.00;;;29.10;1.00;;;;;;5066838;28;20044;-72
2023/06/11 09:30:51;;;;;;;7.57;6.88;;;28.90;1.00;;;;;;5048522;28;20527;-74
2023/06/11 09:33:17;;;;;;;7.22;6.47;;;28.90;1.00;;;;;;5042817;28;20068;-73
2023/06/11 09:35:46;;;;;;;7.30;6.60;;;29.10;1.00;;;;;;5051078;28;20083;-73
2023/06/11 09:38:15;;;;;;;7.18;6.47;;;29.20;1.00;;;;;;5049681;28;20033;-73
2023/06/11 09:40:49;;;;;;;8.07;6.30;;;29.50;1.00;;;;;;5067555;28;20036;-73
2023/06/11 09:43:18;;;;;;;;;;;29.90;99.90;;;;;;5040031;28;20436;-72
2023/06/11 09:45:44;;;;;;;7.22;6.63;;;29.80;99.90;;;;;;5081136;28;19920;-73
2023/06/11 09:48:14;;;;;;;8.13;6.20;;;29.40;99.90;;;;;;5044253;28;20052;-73
2023/06/11 09:50:42;;;;;;;10.55;6.30;;;29.60;99.90;;;;;;5033772;28;20050;-73
2023/06/11 09:53:10;;;;;;;7.72;7.03;;;29.60;99.90;;;;;;5067310;28;20423;-73
2023/06/11 09:55:37;;;;;;;6.72;6.13;;;29.80;99.90;;;;;;5067358;28;20045;-73
2023/06/11 09:58:03;;;;;;;6.85;6.28;;;30.30;99.90;;;;;;5046157;28;20062;-72
2023/06/11 10:00:30;;;;;;;7.10;6.35;;;30.80;99.90;;;;;;5066803;28;20089;-74
2023/06/11 10:02:58;;;;;;;6.18;5.57;;;30.70;99.90;;;;;;5048679;28;20449;-73
2023/06/11 10:05:24;;;;;;;9.02;6.40;;;30.50;99.90;;;;;;5047370;28;20487;-74
2023/06/11 10:08:20;;;;;;;7.20;6.38;;;30.80;99.90;;;;;;5050036;28;20497;-74
2023/06/11 10:10:48;;;;;;;7.03;6.30;;;30.10;99.90;;;;;;5034554;28;20482;-73
2023/06/11 10:13:37;;;;;;;7.50;6.80;;;30.20;99.90;;;;;;5044276;28;20041;-74
2023/06/11 10:16:07;;;;;;;5.97;5.40;;;30.60;99.90;;;;;;5069590;28;20115;-73
2023/06/11 10:18:33;;;;;;;7.20;6.40;;;30.60;99.90;;;;;;5070731;28;20697;-74
2023/06/11 10:21:04;;;;;;;6.80;6.10;;;30.70;99.90;;;;;;5054073;28;20048;-74
2023/06/11 10:23:38;;;;;;;6.88;6.18;;;30.90;99.90;;;;;;5059051;28;20114;-74
2023/06/11 10:26:04;;;;;;;7.72;6.18;;;31.00;99.90;;;;;;5056206;28;20036;-74
2023/06/11 10:28:49;;;;;;;6.63;6.03;;;31.20;99.90;;;;;;5058592;28;20523;-74
2023/06/11 10:31:25;;;;;;;7.10;5.97;;;31.00;99.90;;;;;;5087276;28;20166;-74
2023/06/11 10:33:51;;;;;;;6.57;5.97;;;31.30;99.90;;;;;;5055973;28;20481;-74
2023/06/11 10:36:26;;;;;;;7.68;6.60;;;31.20;99.90;;;;;;5067878;28;20051;-73
2023/06/11 10:39:25;;;;;;;6.53;5.75;;;31.30;99.90;;;;;;5072340;28;20040;-74
2023/06/11 10:42:02;;;;;;;7.50;6.07;;;31.40;99.90;;;;;;5055226;28;20365;-73
2023/06/11 10:44:31;;;;;;;6.88;6.22;;;31.30;99.90;;;;;;5062064;28;20052;-74
2023/06/11 10:47:00;;;;;;;6.45;5.85;;;31.10;99.90;;;;;;5053920;28;20082;-74
2023/06/11 10:49:27;;;;;;;6.68;5.90;;;31.20;99.90;;;;;;5077460;28;20097;-74
2023/06/11 10:51:54;;;;;;;6.75;6.15;;;31.60;99.90;;;;;;5074974;28;20040;-75
2023/06/11 10:54:27;;;;;;;6.38;5.78;;;31.70;99.90;;;;;;5063918;28;20036;-74
2023/06/11 10:56:54;;;;;;;6.85;5.95;;;31.60;82.80;;;;;;5034744;28;20041;-75
2023/06/11 10:59:23;;;;;;;6.03;5.50;;;31.50;99.90;;;;;;5074664;28;20175;-74
2023/06/11 11:01:52;;;;;;;6.28;5.68;;;32.00;99.90;;;;;;5058652;28;20081;-74
2023/06/11 11:04:18;;;;;;;6.97;6.07;;;31.90;44.00;;;;;;5042923;28;20155;-75
2023/06/11 11:06:44;;;;;;;5.97;5.47;;;31.80;56.20;;;;;;5063401;28;20040;-74
2023/06/11 11:09:19;;;;;;;6.03;5.53;;;32.40;54.60;;;;;;5023163;28;20049;-74
2023/06/11 11:11:45;;;;;;;5.30;4.80;;;31.90;1.00;;;;;;5034234;28;20127;-73
2023/06/11 11:14:11;;;;;;;5.68;5.18;;;32.20;9.40;;;;;;5048521;28;20124;-75
2023/06/11 11:16:37;;;;;;;6.75;5.22;;;32.00;1.00;;;;;;5054034;28;20056;-75
2023/06/11 11:19:03;;;;;;;6.30;5.45;;;31.60;1.00;;;;;;5041642;28;20037;-74
2023/06/11 11:21:29;;;;;;;5.95;5.30;;;31.40;1.00;;;;;;5060488;28;20047;-74
2023/06/11 11:23:55;;;;;;;5.55;5.00;;;32.30;1.00;;;;;;5043780;28;20037;-74
2023/06/11 11:26:21;;;;;;;4.93;4.50;;;31.90;1.00;;;;;;5049564;28;20174;-75
2023/06/11 11:28:47;;;;;;;5.63;5.00;;;31.50;1.00;;;;;;5027653;28;20037;-74
2023/06/11 11:31:20;;;;;;;5.20;4.70;;;31.50;1.00;;;;;;5037833;28;20497;-74
2023/06/11 11:33:47;;;;;;;5.25;4.75;;;32.20;1.00;;;;;;5086207;28;20041;-75
2023/06/11 11:36:13;;;;;;;5.35;4.85;;;32.00;1.00;;;;;;5069410;28;20052;-74
2023/06/11 11:38:39;;;;;;;6.85;5.25;;;32.10;1.00;;;;;;5058688;28;20055;-74
2023/06/11 11:41:09;;;;;;;5.50;5.00;;;32.20;1.00;;;;;;5044980;28;20074;-76
2023/06/11 11:43:42;;;;;;;5.32;4.82;;;32.20;1.00;;;;;;5057820;28;20127;-74
2023/06/11 11:46:18;;;;;;;5.75;5.15;;;31.90;1.00;;;;;;5066122;28;20409;-75
2023/06/11 11:48:45;;;;;;;5.75;5.28;;;31.70;1.00;;;;;;5049501;28;20044;-74
2023/06/11 11:51:13;;;;;;;5.75;4.93;;;32.00;1.00;;;;;;5035090;28;20151;-74
2023/06/11 11:53:40;;;;;;;7.70;5.78;;;31.90;1.00;;;;;;5045767;28;20041;-75
2023/06/11 11:56:06;;;;;;;5.60;5.10;;;31.80;1.00;;;;;;5055537;28;20056;-74
2023/06/11 11:58:37;;;;;;;5.68;5.18;;;31.90;1.00;;;;;;5048928;28;20052;-75
2023/06/11 12:01:03;;;;;;;6.05;5.25;;;31.80;1.00;;;;;;5057397;28;20102;-74
2023/06/11 12:03:29;;;;;;;6.38;5.50;;;31.80;1.00;;;;;;5056630;28;20048;-74
2023/06/11 12:06:03;;;;;;;6.65;5.35;;;32.60;1.00;;;;;;5038761;28;20094;-74
2023/06/11 12:08:30;;;;;;;7.07;4.88;;;31.60;1.00;;;;;;5044484;28;20094;-73
2023/06/11 12:10:57;;;;;;;6.25;5.63;;;31.90;1.00;;;;;;5039800;28;20048;-75
2023/06/11 12:13:23;;;;;;;6.05;5.20;;;31.70;1.00;;;;;;5037384;28;20105;-74
2023/06/11 12:15:48;;;;;;;4.93;4.50;;;31.70;1.00;;;;;;5037096;28;20045;-76
2023/06/11 12:18:14;;;;;;;6.55;5.50;;;32.20;1.00;;;;;;5089218;28;20032;-73
2023/06/11 12:20:43;;;;;;;6.00;5.40;;;32.40;1.00;;;;;;5037660;28;20405;-75
2023/06/11 12:23:09;;;;;;;5.10;4.68;;;32.30;1.00;;;;;;5058413;28;20044;-75
2023/06/11 12:25:35;;;;;;;5.95;5.38;;;32.00;1.00;;;;;;5049733;28;20048;-74
2023/06/11 12:28:02;;;;;;;7.13;5.45;;;32.00;1.00;;;;;;5037421;28;20033;-76
2023/06/11 12:30:30;;;;;;;5.13;4.72;;;32.50;1.00;;;;;;5053089;28;20072;-75
2023/06/11 12:32:59;;;;;;;5.68;5.05;;;31.50;1.00;;;;;;5067838;28;20033;-74
2023/06/11 12:35:28;;;;;;;5.68;5.18;;;31.10;1.00;;;;;;5047581;28;20098;-74
2023/06/11 12:37:55;;;;;;;5.40;4.90;;;31.00;1.00;;;;;;5066694;28;20384;-75
2023/06/11 12:40:21;;;;;;;6.07;5.57;;;31.10;1.00;;;;;;5084566;28;20385;-75
2023/06/11 12:42:48;;;;;;;6.47;4.97;;;31.90;1.00;;;;;;5062166;28;20055;-74
2023/06/11 12:45:14;;;;;;;5.95;5.32;;;31.80;99.90;;;;;;5035474;28;20434;-74
2023/06/11 12:47:41;;;;;;;5.90;5.40;;;32.20;1.00;;;;;;5075443;28;20424;-75